sensor_id;sensor_type;location;lat;lon;timestamp;P1;durP1;ratioP1;P2;durP2;ratioP2
19038;SDS011;9652;49.014;12.052;2022-09-09T00:01:57;2.60;;;1.63;;
19038;SDS011;9652;49.014;12.052;2022-09-09T00:04:35;2.53;;;1.53;;
19038;SDS011;9652;49.014;12.052;2022-09-09T00:07:05;4.43;;;1.53;;
19038;SDS011;9652;49.014;12.052;2022-09-09T00:09:47;1.13;;;1.10;;
19038;SDS011;9652;49.014;12.052;2022-09-09T00:12:29;2.70;;;1.40;;
19038;SDS011;9652;49.014;12.052;2022-09-09T00:15:05;2.07;;;1.30;;
19038;SDS011;9652;49.014;12.052;2022-09-09T00:17:42;2.87;;;1.33;;
19038;SDS011;9652;49.014;12.052;2022-09-09T00:20:20;1.60;;;1.50;;
19038;SDS011;9652;49.014;12.052;2022-09-09T00:22:57;1.43;;;1.30;;
19038;SDS011;9652;49.014;12.052;2022-09-09T00:25:40;1.37;;;1.30;;
19038;SDS011;9652;49.014;12.052;2022-09-09T00:28:17;1.53;;;1.43;;
19038;SDS011;9652;49.014;12.052;2022-09-09T00:30:48;2.53;;;1.53;;
19038;SDS011;9652;49.014;12.052;2022-09-09T00:33:16;1.73;;;1.30;;
19038;SDS011;9652;49.014;12.052;2022-09-09T00:35:50;2.47;;;1.67;;
19038;SDS011;9652;49.014;12.052;2022-09-09T00:38:23;3.70;;;1.63;;
19038;SDS011;9652;49.014;12.052;2022-09-09T00:40:58;2.03;;;1.63;;
19038;SDS011;9652;49.014;12.052;2022-09-09T00:43:35;2.97;;;1.50;;
19038;SDS011;9652;49.014;12.052;2022-09-09T00:46:10;1.90;;;1.80;;
19038;SDS011;9652;49.014;12.052;2022-09-09T00:48:59;1.83;;;1.47;;
19038;SDS011;9652;49.014;12.052;2022-09-09T00:51:44;1.93;;;1.70;;
19038;SDS011;9652;49.014;12.052;2022-09-09T00:54:31;2.50;;;2.30;;
19038;SDS011;9652;49.014;12.052;2022-09-09T00:57:18;3.00;;;2.53;;
19038;SDS011;9652;49.014;12.052;2022-09-09T00:59:58;3.60;;;3.30;;
19038;SDS011;9652;49.014;12.052;2022-09-09T01:02:52;4.70;;;3.80;;
19038;SDS011;9652;49.014;12.052;2022-09-09T01:05:33;5.87;;;4.57;;
19038;SDS011;9652;49.014;12.052;2022-09-09T01:08:24;5.23;;;4.40;;
19038;SDS011;9652;49.014;12.052;2022-09-09T01:11:24;5.87;;;4.10;;
19038;SDS011;9652;49.014;12.052;2022-09-09T01:14:01;4.83;;;4.17;;
19038;SDS011;9652;49.014;12.052;2022-09-09T01:16:43;4.33;;;3.90;;
19038;SDS011;9652;49.014;12.052;2022-09-09T01:19:16;5.70;;;4.50;;
19038;SDS011;9652;49.014;12.052;2022-09-09T01:22:01;4.20;;;3.80;;
19038;SDS011;9652;49.014;12.052;2022-09-09T01:24:42;4.70;;;4.20;;
19038;SDS011;9652;49.014;12.052;2022-09-09T01:28:01;5.53;;;4.10;;
19038;SDS011;9652;49.014;12.052;2022-09-09T01:30:38;4.83;;;4.30;;
19038;SDS011;9652;49.014;12.052;2022-09-09T01:33:11;4.67;;;3.83;;
19038;SDS011;9652;49.014;12.052;2022-09-09T01:35:43;5.27;;;4.37;;
19038;SDS011;9652;49.014;12.052;2022-09-09T01:38:21;5.23;;;4.53;;
19038;SDS011;9652;49.014;12.052;2022-09-09T01:40:52;5.97;;;4.90;;
19038;SDS011;9652;49.014;12.052;2022-09-09T01:43:26;6.53;;;4.37;;
19038;SDS011;9652;49.014;12.052;2022-09-09T01:45:56;5.47;;;4.83;;
19038;SDS011;9652;49.014;12.052;2022-09-09T01:48:28;6.83;;;4.87;;
19038;SDS011;9652;49.014;12.052;2022-09-09T01:51:01;6.60;;;4.13;;
19038;SDS011;9652;49.014;12.052;2022-09-09T01:53:29;4.13;;;3.70;;
19038;SDS011;9652;49.014;12.052;2022-09-09T01:55:59;4.43;;;4.03;;
19038;SDS011;9652;49.014;12.052;2022-09-09T01:58:45;5.17;;;4.27;;
19038;SDS011;9652;49.014;12.052;2022-09-09T02:01:27;4.50;;;3.90;;
19038;SDS011;9652;49.014;12.052;2022-09-09T02:04:16;4.93;;;3.87;;
19038;SDS011;9652;49.014;12.052;2022-09-09T02:07:11;4.23;;;3.83;;
19038;SDS011;9652;49.014;12.052;2022-09-09T02:09:55;5.00;;;4.23;;
19038;SDS011;9652;49.014;12.052;2022-09-09T02:12:30;7.73;;;4.47;;
19038;SDS011;9652;49.014;12.052;2022-09-09T02:15:03;4.30;;;3.63;;
19038;SDS011;9652;49.014;12.052;2022-09-09T02:17:45;4.30;;;3.90;;
19038;SDS011;9652;49.014;12.052;2022-09-09T02:20:18;4.93;;;4.30;;
19038;SDS011;9652;49.014;12.052;2022-09-09T02:22:56;4.73;;;4.17;;
19038;SDS011;9652;49.014;12.052;2022-09-09T02:25:26;5.47;;;4.60;;
19038;SDS011;9652;49.014;12.052;2022-09-09T02:28:03;4.53;;;4.03;;
19038;SDS011;9652;49.014;12.052;2022-09-09T02:30:36;4.87;;;4.23;;
19038;SDS011;9652;49.014;12.052;2022-09-09T02:33:06;5.53;;;4.13;;
19038;SDS011;9652;49.014;12.052;2022-09-09T02:35:43;7.20;;;4.13;;
19038;SDS011;9652;49.014;12.052;2022-09-09T02:38:14;4.27;;;3.87;;
19038;SDS011;9652;49.014;12.052;2022-09-09T02:40:54;4.90;;;4.40;;
19038;SDS011;9652;49.014;12.052;2022-09-09T02:43:22;5.07;;;3.87;;
19038;SDS011;9652;49.014;12.052;2022-09-09T02:45:53;4.27;;;3.83;;
19038;SDS011;9652;49.014;12.052;2022-09-09T02:48:36;5.80;;;4.43;;
19038;SDS011;9652;49.014;12.052;2022-09-09T02:51:32;5.97;;;4.20;;
19038;SDS011;9652;49.014;12.052;2022-09-09T02:54:16;5.10;;;4.10;;
19038;SDS011;9652;49.014;12.052;2022-09-09T02:56:53;4.63;;;3.90;;
19038;SDS011;9652;49.014;12.052;2022-09-09T02:59:28;4.77;;;4.17;;
19038;SDS011;9652;49.014;12.052;2022-09-09T03:01:58;4.37;;;3.47;;
19038;SDS011;9652;49.014;12.052;2022-09-09T03:04:26;5.50;;;4.20;;
19038;SDS011;9652;49.014;12.052;2022-09-09T03:06:56;4.70;;;4.20;;
19038;SDS011;9652;49.014;12.052;2022-09-09T03:09:23;4.53;;;4.13;;
19038;SDS011;9652;49.014;12.052;2022-09-09T03:11:52;4.33;;;3.83;;
19038;SDS011;9652;49.014;12.052;2022-09-09T03:14:21;5.43;;;4.40;;
19038;SDS011;9652;49.014;12.052;2022-09-09T03:16:50;5.60;;;4.43;;
19038;SDS011;9652;49.014;12.052;2022-09-09T03:19:20;5.80;;;4.03;;
19038;SDS011;9652;49.014;12.052;2022-09-09T03:21:48;4.13;;;3.73;;
19038;SDS011;9652;49.014;12.052;2022-09-09T03:24:15;7.60;;;3.87;;
19038;SDS011;9652;49.014;12.052;2022-09-09T03:26:42;5.10;;;3.87;;
19038;SDS011;9652;49.014;12.052;2022-09-09T03:29:13;6.90;;;4.20;;
19038;SDS011;9652;49.014;12.052;2022-09-09T03:31:41;4.53;;;3.73;;
19038;SDS011;9652;49.014;12.052;2022-09-09T03:34:08;4.80;;;3.70;;
19038;SDS011;9652;49.014;12.052;2022-09-09T03:36:38;4.30;;;3.70;;
19038;SDS011;9652;49.014;12.052;2022-09-09T03:39:06;4.27;;;3.73;;
19038;SDS011;9652;49.014;12.052;2022-09-09T03:41:34;4.80;;;4.40;;
19038;SDS011;9652;49.014;12.052;2022-09-09T03:44:03;5.00;;;3.97;;
19038;SDS011;9652;49.014;12.052;2022-09-09T03:46:36;4.47;;;4.07;;
19038;SDS011;9652;49.014;12.052;2022-09-09T03:49:03;6.03;;;4.10;;
19038;SDS011;9652;49.014;12.052;2022-09-09T03:51:31;4.53;;;4.10;;
19038;SDS011;9652;49.014;12.052;2022-09-09T03:54:04;4.53;;;3.80;;
19038;SDS011;9652;49.014;12.052;2022-09-09T03:56:33;4.93;;;4.17;;
19038;SDS011;9652;49.014;12.052;2022-09-09T03:59:01;4.30;;;3.90;;
19038;SDS011;9652;49.014;12.052;2022-09-09T04:01:29;4.70;;;4.07;;
19038;SDS011;9652;49.014;12.052;2022-09-09T04:03:56;5.27;;;4.20;;
19038;SDS011;9652;49.014;12.052;2022-09-09T04:06:24;4.53;;;4.13;;
19038;SDS011;9652;49.014;12.052;2022-09-09T04:08:51;6.73;;;4.40;;
19038;SDS011;9652;49.014;12.052;2022-09-09T04:11:20;4.77;;;3.93;;
19038;SDS011;9652;49.014;12.052;2022-09-09T04:13:50;5.13;;;4.57;;
19038;SDS011;9652;49.014;12.052;2022-09-09T04:16:18;4.80;;;4.13;;
19038;SDS011;9652;49.014;12.052;2022-09-09T04:18:45;4.20;;;3.80;;
19038;SDS011;9652;49.014;12.052;2022-09-09T04:21:15;5.03;;;3.83;;
19038;SDS011;9652;49.014;12.052;2022-09-09T04:23:42;5.50;;;4.50;;
19038;SDS011;9652;49.014;12.052;2022-09-09T04:26:09;4.90;;;3.97;;
19038;SDS011;9652;49.014;12.052;2022-09-09T04:28:39;4.97;;;4.47;;
19038;SDS011;9652;49.014;12.052;2022-09-09T04:31:14;5.43;;;4.17;;
19038;SDS011;9652;49.014;12.052;2022-09-09T04:33:45;4.83;;;4.03;;
19038;SDS011;9652;49.014;12.052;2022-09-09T04:36:13;7.73;;;4.27;;
19038;SDS011;9652;49.014;12.052;2022-09-09T04:38:41;4.03;;;3.63;;
19038;SDS011;9652;49.014;12.052;2022-09-09T04:41:09;4.43;;;4.00;;
19038;SDS011;9652;49.014;12.052;2022-09-09T04:43:40;5.30;;;4.20;;
19038;SDS011;9652;49.014;12.052;2022-09-09T04:46:08;4.63;;;4.03;;
19038;SDS011;9652;49.014;12.052;2022-09-09T04:48:35;4.40;;;3.83;;
19038;SDS011;9652;49.014;12.052;2022-09-09T04:51:05;5.70;;;4.10;;
19038;SDS011;9652;49.014;12.052;2022-09-09T04:53:37;5.30;;;4.27;;
19038;SDS011;9652;49.014;12.052;2022-09-09T04:56:06;5.83;;;4.10;;
19038;SDS011;9652;49.014;12.052;2022-09-09T04:58:41;5.67;;;3.90;;
19038;SDS011;9652;49.014;12.052;2022-09-09T05:01:10;5.00;;;3.93;;
19038;SDS011;9652;49.014;12.052;2022-09-09T05:03:42;5.73;;;4.03;;
19038;SDS011;9652;49.014;12.052;2022-09-09T05:06:12;7.03;;;4.60;;
19038;SDS011;9652;49.014;12.052;2022-09-09T05:08:41;5.57;;;4.27;;
19038;SDS011;9652;49.014;12.052;2022-09-09T05:11:13;4.83;;;4.33;;
19038;SDS011;9652;49.014;12.052;2022-09-09T05:13:44;5.43;;;4.10;;
19038;SDS011;9652;49.014;12.052;2022-09-09T05:16:11;6.50;;;5.20;;
19038;SDS011;9652;49.014;12.052;2022-09-09T05:18:40;5.27;;;4.40;;
19038;SDS011;9652;49.014;12.052;2022-09-09T05:21:09;7.10;;;4.27;;
19038;SDS011;9652;49.014;12.052;2022-09-09T05:23:37;5.10;;;4.60;;
19038;SDS011;9652;49.014;12.052;2022-09-09T05:26:05;5.17;;;4.67;;
19038;SDS011;9652;49.014;12.052;2022-09-09T05:28:35;4.97;;;4.47;;
19038;SDS011;9652;49.014;12.052;2022-09-09T05:31:05;6.00;;;4.50;;
19038;SDS011;9652;49.014;12.052;2022-09-09T05:33:35;8.43;;;4.97;;
19038;SDS011;9652;49.014;12.052;2022-09-09T05:36:06;5.60;;;4.10;;
19038;SDS011;9652;49.014;12.052;2022-09-09T05:38:36;4.73;;;4.17;;
19038;SDS011;9652;49.014;12.052;2022-09-09T05:41:03;5.33;;;4.43;;
19038;SDS011;9652;49.014;12.052;2022-09-09T05:43:31;5.87;;;4.00;;
19038;SDS011;9652;49.014;12.052;2022-09-09T05:46:00;5.23;;;4.17;;
19038;SDS011;9652;49.014;12.052;2022-09-09T05:48:32;4.67;;;4.27;;
19038;SDS011;9652;49.014;12.052;2022-09-09T05:51:01;4.47;;;4.07;;
19038;SDS011;9652;49.014;12.052;2022-09-09T05:53:30;3.60;;;3.30;;
19038;SDS011;9652;49.014;12.052;2022-09-09T05:56:00;5.57;;;3.73;;
19038;SDS011;9652;49.014;12.052;2022-09-09T05:58:31;4.00;;;3.60;;
19038;SDS011;9652;49.014;12.052;2022-09-09T06:01:04;3.77;;;3.30;;
19038;SDS011;9652;49.014;12.052;2022-09-09T06:03:35;4.43;;;3.50;;
19038;SDS011;9652;49.014;12.052;2022-09-09T06:06:05;4.00;;;3.53;;
19038;SDS011;9652;49.014;12.052;2022-09-09T06:08:34;4.13;;;3.53;;
19038;SDS011;9652;49.014;12.052;2022-09-09T06:11:05;4.67;;;3.80;;
19038;SDS011;9652;49.014;12.052;2022-09-09T06:13:36;4.03;;;3.63;;
19038;SDS011;9652;49.014;12.052;2022-09-09T06:16:06;3.93;;;3.43;;
19038;SDS011;9652;49.014;12.052;2022-09-09T06:18:38;3.20;;;2.90;;
19038;SDS011;9652;49.014;12.052;2022-09-09T06:21:07;4.23;;;3.10;;
19038;SDS011;9652;49.014;12.052;2022-09-09T06:23:41;5.33;;;3.20;;
19038;SDS011;9652;49.014;12.052;2022-09-09T06:26:10;4.00;;;3.17;;
19038;SDS011;9652;49.014;12.052;2022-09-09T06:28:40;4.27;;;3.43;;
19038;SDS011;9652;49.014;12.052;2022-09-09T06:31:10;3.47;;;3.13;;
19038;SDS011;9652;49.014;12.052;2022-09-09T06:33:40;3.60;;;3.10;;
19038;SDS011;9652;49.014;12.052;2022-09-09T06:36:10;3.83;;;3.40;;
19038;SDS011;9652;49.014;12.052;2022-09-09T06:38:40;4.03;;;3.60;;
19038;SDS011;9652;49.014;12.052;2022-09-09T06:41:10;3.37;;;3.07;;
19038;SDS011;9652;49.014;12.052;2022-09-09T06:43:39;3.40;;;2.87;;
19038;SDS011;9652;49.014;12.052;2022-09-09T06:46:08;2.70;;;2.50;;
19038;SDS011;9652;49.014;12.052;2022-09-09T06:48:39;3.57;;;3.10;;
19038;SDS011;9652;49.014;12.052;2022-09-09T06:51:10;5.13;;;3.27;;
19038;SDS011;9652;49.014;12.052;2022-09-09T06:53:40;4.13;;;3.73;;
19038;SDS011;9652;49.014;12.052;2022-09-09T06:56:17;3.83;;;3.20;;
19038;SDS011;9652;49.014;12.052;2022-09-09T06:58:50;5.90;;;3.80;;
19038;SDS011;9652;49.014;12.052;2022-09-09T07:01:26;4.90;;;4.03;;
19038;SDS011;9652;49.014;12.052;2022-09-09T07:03:58;5.47;;;4.03;;
19038;SDS011;9652;49.014;12.052;2022-09-09T07:06:28;5.73;;;4.07;;
19038;SDS011;9652;49.014;12.052;2022-09-09T07:08:59;4.57;;;3.40;;
19038;SDS011;9652;49.014;12.052;2022-09-09T07:11:30;5.17;;;3.70;;
19038;SDS011;9652;49.014;12.052;2022-09-09T07:14:00;4.00;;;3.30;;
19038;SDS011;9652;49.014;12.052;2022-09-09T07:16:29;3.67;;;3.37;;
19038;SDS011;9652;49.014;12.052;2022-09-09T07:18:59;4.20;;;3.80;;
19038;SDS011;9652;49.014;12.052;2022-09-09T07:21:28;4.43;;;3.63;;
19038;SDS011;9652;49.014;12.052;2022-09-09T07:23:57;4.63;;;3.50;;
19038;SDS011;9652;49.014;12.052;2022-09-09T07:26:26;4.47;;;3.60;;
19038;SDS011;9652;49.014;12.052;2022-09-09T07:28:57;7.10;;;3.80;;
19038;SDS011;9652;49.014;12.052;2022-09-09T07:31:25;4.30;;;3.43;;
19038;SDS011;9652;49.014;12.052;2022-09-09T07:33:58;4.17;;;3.67;;
19038;SDS011;9652;49.014;12.052;2022-09-09T07:36:27;6.67;;;4.13;;
19038;SDS011;9652;49.014;12.052;2022-09-09T07:38:57;6.50;;;4.33;;
19038;SDS011;9652;49.014;12.052;2022-09-09T07:41:28;6.63;;;4.00;;
19038;SDS011;9652;49.014;12.052;2022-09-09T07:44:03;5.97;;;4.00;;
19038;SDS011;9652;49.014;12.052;2022-09-09T07:46:33;4.23;;;3.23;;
19038;SDS011;9652;49.014;12.052;2022-09-09T07:49:02;5.40;;;3.70;;
19038;SDS011;9652;49.014;12.052;2022-09-09T07:51:33;3.83;;;3.53;;
19038;SDS011;9652;49.014;12.052;2022-09-09T07:54:05;5.77;;;3.57;;
19038;SDS011;9652;49.014;12.052;2022-09-09T07:56:36;5.00;;;3.53;;
19038;SDS011;9652;49.014;12.052;2022-09-09T07:59:06;4.50;;;3.60;;
19038;SDS011;9652;49.014;12.052;2022-09-09T08:01:36;4.47;;;3.50;;
19038;SDS011;9652;49.014;12.052;2022-09-09T08:04:09;3.10;;;2.80;;
19038;SDS011;9652;49.014;12.052;2022-09-09T08:06:41;4.13;;;2.97;;
19038;SDS011;9652;49.014;12.052;2022-09-09T08:09:12;3.20;;;2.90;;
19038;SDS011;9652;49.014;12.052;2022-09-09T08:11:41;4.77;;;3.03;;
19038;SDS011;9652;49.014;12.052;2022-09-09T08:14:10;3.60;;;3.00;;
19038;SDS011;9652;49.014;12.052;2022-09-09T08:16:39;2.90;;;2.60;;
19038;SDS011;9652;49.014;12.052;2022-09-09T08:19:11;2.63;;;2.43;;
19038;SDS011;9652;49.014;12.052;2022-09-09T08:21:41;3.70;;;2.60;;
19038;SDS011;9652;49.014;12.052;2022-09-09T08:24:11;4.40;;;2.67;;
19038;SDS011;9652;49.014;12.052;2022-09-09T08:26:41;5.90;;;3.43;;
19038;SDS011;9652;49.014;12.052;2022-09-09T08:29:11;3.47;;;2.77;;
19038;SDS011;9652;49.014;12.052;2022-09-09T08:31:42;2.37;;;2.17;;
19038;SDS011;9652;49.014;12.052;2022-09-09T08:34:14;2.50;;;2.30;;
19038;SDS011;9652;49.014;12.052;2022-09-09T08:36:43;3.03;;;2.30;;
19038;SDS011;9652;49.014;12.052;2022-09-09T08:39:13;2.13;;;1.93;;
19038;SDS011;9652;49.014;12.052;2022-09-09T08:41:46;5.23;;;2.17;;
19038;SDS011;9652;49.014;12.052;2022-09-09T08:44:49;3.80;;;2.23;;
19038;SDS011;9652;49.014;12.052;2022-09-09T08:47:38;2.13;;;1.53;;
19038;SDS011;9652;49.014;12.052;2022-09-09T08:50:24;2.93;;;1.80;;
19038;SDS011;9652;49.014;12.052;2022-09-09T08:53:00;3.03;;;1.53;;
19038;SDS011;9652;49.014;12.052;2022-09-09T08:55:37;2.07;;;1.80;;
19038;SDS011;9652;49.014;12.052;2022-09-09T08:58:12;2.30;;;1.60;;
19038;SDS011;9652;49.014;12.052;2022-09-09T09:00:49;2.10;;;1.90;;
19038;SDS011;9652;49.014;12.052;2022-09-09T09:03:32;1.93;;;1.60;;
19038;SDS011;9652;49.014;12.052;2022-09-09T09:06:17;2.50;;;2.07;;
19038;SDS011;9652;49.014;12.052;2022-09-09T09:09:04;2.90;;;1.47;;
19038;SDS011;9652;49.014;12.052;2022-09-09T09:11:36;3.20;;;1.50;;
19038;SDS011;9652;49.014;12.052;2022-09-09T09:14:09;2.50;;;1.40;;
19038;SDS011;9652;49.014;12.052;2022-09-09T09:16:46;2.27;;;1.67;;
19038;SDS011;9652;49.014;12.052;2022-09-09T09:19:20;1.63;;;1.50;;
19038;SDS011;9652;49.014;12.052;2022-09-09T09:21:53;2.77;;;1.40;;
19038;SDS011;9652;49.014;12.052;2022-09-09T09:24:33;1.60;;;1.50;;
19038;SDS011;9652;49.014;12.052;2022-09-09T09:27:11;1.97;;;1.77;;
19038;SDS011;9652;49.014;12.052;2022-09-09T09:29:47;2.23;;;1.67;;
19038;SDS011;9652;49.014;12.052;2022-09-09T09:32:18;2.90;;;1.40;;
19038;SDS011;9652;49.014;12.052;2022-09-09T09:34:49;1.70;;;1.50;;
19038;SDS011;9652;49.014;12.052;2022-09-09T09:37:25;1.67;;;1.37;;
19038;SDS011;9652;49.014;12.052;2022-09-09T09:40:07;2.60;;;1.73;;
19038;SDS011;9652;49.014;12.052;2022-09-09T09:42:37;2.17;;;1.53;;
19038;SDS011;9652;49.014;12.052;2022-09-09T09:45:16;1.80;;;1.17;;
19038;SDS011;9652;49.014;12.052;2022-09-09T09:47:59;2.27;;;1.30;;
19038;SDS011;9652;49.014;12.052;2022-09-09T09:50:30;1.50;;;1.17;;
19038;SDS011;9652;49.014;12.052;2022-09-09T09:53:00;1.50;;;1.40;;
19038;SDS011;9652;49.014;12.052;2022-09-09T09:55:34;0.93;;;0.90;;
19038;SDS011;9652;49.014;12.052;2022-09-09T09:58:03;1.47;;;1.10;;
19038;SDS011;9652;49.014;12.052;2022-09-09T10:00:34;2.23;;;1.20;;
19038;SDS011;9652;49.014;12.052;2022-09-09T10:03:13;2.00;;;0.93;;
19038;SDS011;9652;49.014;12.052;2022-09-09T10:05:53;2.17;;;1.10;;
19038;SDS011;9652;49.014;12.052;2022-09-09T10:08:23;1.27;;;0.80;;
19038;SDS011;9652;49.014;12.052;2022-09-09T10:10:58;2.90;;;1.20;;
19038;SDS011;9652;49.014;12.052;2022-09-09T10:13:47;1.50;;;1.20;;
19038;SDS011;9652;49.014;12.052;2022-09-09T10:16:40;2.87;;;1.20;;
19038;SDS011;9652;49.014;12.052;2022-09-09T10:19:27;2.30;;;0.90;;
19038;SDS011;9652;49.014;12.052;2022-09-09T10:22:02;1.97;;;0.90;;
19038;SDS011;9652;49.014;12.052;2022-09-09T10:28:10;1.10;;;0.77;;
19038;SDS011;9652;49.014;12.052;2022-09-09T10:31:10;2.03;;;0.70;;
19038;SDS011;9652;49.014;12.052;2022-09-09T10:33:49;0.80;;;0.60;;
19038;SDS011;9652;49.014;12.052;2022-09-09T10:36:24;1.40;;;0.60;;
19038;SDS011;9652;49.014;12.052;2022-09-09T10:38:54;2.53;;;0.80;;
19038;SDS011;9652;49.014;12.052;2022-09-09T10:41:34;0.80;;;0.70;;
19038;SDS011;9652;49.014;12.052;2022-09-09T10:44:19;0.63;;;0.50;;
19038;SDS011;9652;49.014;12.052;2022-09-09T10:47:12;1.27;;;0.83;;
19038;SDS011;9652;49.014;12.052;2022-09-09T10:50:12;0.80;;;0.50;;
19038;SDS011;9652;49.014;12.052;2022-09-09T10:53:08;4.03;;;0.80;;
19038;SDS011;9652;49.014;12.052;2022-09-09T10:55:48;1.13;;;0.60;;
19038;SDS011;9652;49.014;12.052;2022-09-09T10:58:25;0.67;;;0.60;;
19038;SDS011;9652;49.014;12.052;2022-09-09T11:01:01;1.17;;;0.70;;
19038;SDS011;9652;49.014;12.052;2022-09-09T11:03:39;0.77;;;0.60;;
19038;SDS011;9652;49.014;12.052;2022-09-09T11:06:09;2.40;;;1.10;;
19038;SDS011;9652;49.014;12.052;2022-09-09T11:08:42;1.33;;;0.80;;
19038;SDS011;9652;49.014;12.052;2022-09-09T11:11:11;0.60;;;0.57;;
19038;SDS011;9652;49.014;12.052;2022-09-09T11:13:47;1.30;;;0.73;;
19038;SDS011;9652;49.014;12.052;2022-09-09T11:16:25;3.40;;;0.97;;
19038;SDS011;9652;49.014;12.052;2022-09-09T11:19:02;1.03;;;0.80;;
19038;SDS011;9652;49.014;12.052;2022-09-09T11:21:38;1.20;;;0.50;;
19038;SDS011;9652;49.014;12.052;2022-09-09T11:24:13;1.00;;;0.80;;
19038;SDS011;9652;49.014;12.052;2022-09-09T11:26:50;1.30;;;0.50;;
19038;SDS011;9652;49.014;12.052;2022-09-09T11:29:31;1.33;;;0.80;;
19038;SDS011;9652;49.014;12.052;2022-09-09T11:32:44;1.63;;;0.80;;
19038;SDS011;9652;49.014;12.052;2022-09-09T11:35:54;1.53;;;0.50;;
19038;SDS011;9652;49.014;12.052;2022-09-09T11:38:41;0.60;;;0.53;;
19038;SDS011;9652;49.014;12.052;2022-09-09T11:41:13;2.40;;;0.70;;
19038;SDS011;9652;49.014;12.052;2022-09-09T11:43:42;1.03;;;0.70;;
19038;SDS011;9652;49.014;12.052;2022-09-09T11:46:13;2.97;;;0.70;;
19038;SDS011;9652;49.014;12.052;2022-09-09T11:48:44;0.90;;;0.73;;
19038;SDS011;9652;49.014;12.052;2022-09-09T11:51:25;2.63;;;0.77;;
19038;SDS011;9652;49.014;12.052;2022-09-09T11:53:56;1.60;;;0.70;;
19038;SDS011;9652;49.014;12.052;2022-09-09T11:56:27;2.53;;;0.80;;
19038;SDS011;9652;49.014;12.052;2022-09-09T11:58:58;0.83;;;0.80;;
19038;SDS011;9652;49.014;12.052;2022-09-09T12:01:40;1.77;;;0.63;;
19038;SDS011;9652;49.014;12.052;2022-09-09T12:04:14;0.90;;;0.70;;
19038;SDS011;9652;49.014;12.052;2022-09-09T12:06:58;2.00;;;0.70;;
19038;SDS011;9652;49.014;12.052;2022-09-09T12:09:35;0.80;;;0.80;;
19038;SDS011;9652;49.014;12.052;2022-09-09T12:12:26;1.00;;;0.70;;
19038;SDS011;9652;49.014;12.052;2022-09-09T12:15:00;1.93;;;0.80;;
19038;SDS011;9652;49.014;12.052;2022-09-09T12:17:48;1.50;;;0.83;;
19038;SDS011;9652;49.014;12.052;2022-09-09T12:20:18;1.87;;;0.77;;
19038;SDS011;9652;49.014;12.052;2022-09-09T12:22:51;1.23;;;0.70;;
19038;SDS011;9652;49.014;12.052;2022-09-09T12:25:39;1.00;;;0.63;;
19038;SDS011;9652;49.014;12.052;2022-09-09T12:28:25;1.77;;;0.80;;
19038;SDS011;9652;49.014;12.052;2022-09-09T12:31:10;2.00;;;0.67;;
19038;SDS011;9652;49.014;12.052;2022-09-09T12:33:47;2.70;;;0.70;;
19038;SDS011;9652;49.014;12.052;2022-09-09T12:36:15;1.27;;;0.77;;
19038;SDS011;9652;49.014;12.052;2022-09-09T12:38:48;1.03;;;0.67;;
19038;SDS011;9652;49.014;12.052;2022-09-09T12:41:19;0.70;;;0.70;;
19038;SDS011;9652;49.014;12.052;2022-09-09T12:43:49;1.30;;;0.80;;
19038;SDS011;9652;49.014;12.052;2022-09-09T12:46:22;1.87;;;0.83;;
19038;SDS011;9652;49.014;12.052;2022-09-09T12:49:02;1.63;;;0.73;;
19038;SDS011;9652;49.014;12.052;2022-09-09T12:51:32;1.40;;;0.67;;
19038;SDS011;9652;49.014;12.052;2022-09-09T12:54:00;4.07;;;1.00;;
19038;SDS011;9652;49.014;12.052;2022-09-09T12:56:28;1.10;;;0.67;;
19038;SDS011;9652;49.014;12.052;2022-09-09T12:59:00;0.83;;;0.80;;
19038;SDS011;9652;49.014;12.052;2022-09-09T13:01:28;3.53;;;1.00;;
19038;SDS011;9652;49.014;12.052;2022-09-09T13:03:58;3.60;;;0.70;;
19038;SDS011;9652;49.014;12.052;2022-09-09T13:06:28;1.83;;;1.10;;
19038;SDS011;9652;49.014;12.052;2022-09-09T13:08:59;1.00;;;0.90;;
19038;SDS011;9652;49.014;12.052;2022-09-09T13:11:29;3.73;;;0.80;;
19038;SDS011;9652;49.014;12.052;2022-09-09T13:14:03;0.83;;;0.70;;
19038;SDS011;9652;49.014;12.052;2022-09-09T13:16:32;1.17;;;0.67;;
19038;SDS011;9652;49.014;12.052;2022-09-09T13:19:06;3.80;;;0.80;;
19038;SDS011;9652;49.014;12.052;2022-09-09T13:21:41;1.07;;;0.80;;
19038;SDS011;9652;49.014;12.052;2022-09-09T13:24:21;1.93;;;0.70;;
19038;SDS011;9652;49.014;12.052;2022-09-09T13:26:56;1.00;;;0.70;;
19038;SDS011;9652;49.014;12.052;2022-09-09T13:29:27;4.03;;;0.60;;
19038;SDS011;9652;49.014;12.052;2022-09-09T13:32:03;1.30;;;0.60;;
19038;SDS011;9652;49.014;12.052;2022-09-09T13:34:33;4.97;;;0.70;;
19038;SDS011;9652;49.014;12.052;2022-09-09T13:37:03;2.67;;;0.60;;
19038;SDS011;9652;49.014;12.052;2022-09-09T13:39:33;3.90;;;0.80;;
19038;SDS011;9652;49.014;12.052;2022-09-09T13:42:03;1.47;;;0.50;;
19038;SDS011;9652;49.014;12.052;2022-09-09T13:44:34;1.27;;;0.70;;
19038;SDS011;9652;49.014;12.052;2022-09-09T13:47:17;2.07;;;0.80;;
19038;SDS011;9652;49.014;12.052;2022-09-09T13:49:46;1.10;;;0.80;;
19038;SDS011;9652;49.014;12.052;2022-09-09T13:52:16;1.80;;;0.80;;
19038;SDS011;9652;49.014;12.052;2022-09-09T13:54:46;2.57;;;0.90;;
19038;SDS011;9652;49.014;12.052;2022-09-09T13:57:16;1.60;;;0.97;;
19038;SDS011;9652;49.014;12.052;2022-09-09T13:59:45;1.90;;;0.93;;
19038;SDS011;9652;49.014;12.052;2022-09-09T14:02:13;2.17;;;0.70;;
19038;SDS011;9652;49.014;12.052;2022-09-09T14:04:42;2.47;;;0.87;;
19038;SDS011;9652;49.014;12.052;2022-09-09T14:07:10;3.07;;;1.30;;
19038;SDS011;9652;49.014;12.052;2022-09-09T14:09:41;2.20;;;0.90;;
19038;SDS011;9652;49.014;12.052;2022-09-09T14:12:09;5.03;;;0.80;;
19038;SDS011;9652;49.014;12.052;2022-09-09T14:14:37;3.25;;;0.88;;
19038;SDS011;9652;49.014;12.052;2022-09-09T14:17:04;0.77;;;0.50;;
19038;SDS011;9652;49.014;12.052;2022-09-09T14:19:31;0.60;;;0.50;;
19038;SDS011;9652;49.014;12.052;2022-09-09T14:21:58;2.15;;;0.75;;
19038;SDS011;9652;49.014;12.052;2022-09-09T14:24:26;2.03;;;0.57;;
19038;SDS011;9652;49.014;12.052;2022-09-09T14:26:55;1.33;;;0.57;;
19038;SDS011;9652;49.014;12.052;2022-09-09T14:29:22;3.08;;;0.77;;
19038;SDS011;9652;49.014;12.052;2022-09-09T14:31:51;3.55;;;0.80;;
19038;SDS011;9652;49.014;12.052;2022-09-09T14:34:18;0.85;;;0.50;;
19038;SDS011;9652;49.014;12.052;2022-09-09T14:36:45;1.48;;;0.40;;
19038;SDS011;9652;49.014;12.052;2022-09-09T14:39:12;1.65;;;0.93;;
19038;SDS011;9652;49.014;12.052;2022-09-09T14:41:39;1.27;;;0.70;;
19038;SDS011;9652;49.014;12.052;2022-09-09T14:44:08;0.60;;;0.40;;
19038;SDS011;9652;49.014;12.052;2022-09-09T14:46:35;2.33;;;0.52;;
19038;SDS011;9652;49.014;12.052;2022-09-09T14:49:02;2.03;;;0.75;;
19038;SDS011;9652;49.014;12.052;2022-09-09T14:51:29;0.98;;;0.55;;
19038;SDS011;9652;49.014;12.052;2022-09-09T14:53:57;0.57;;;0.50;;
19038;SDS011;9652;49.014;12.052;2022-09-09T14:56:27;0.85;;;0.60;;
19038;SDS011;9652;49.014;12.052;2022-09-09T14:58:57;1.03;;;0.60;;
19038;SDS011;9652;49.014;12.052;2022-09-09T15:01:28;5.20;;;0.60;;
19038;SDS011;9652;49.014;12.052;2022-09-09T15:03:57;0.63;;;0.53;;
19038;SDS011;9652;49.014;12.052;2022-09-09T15:06:27;0.70;;;0.50;;
19038;SDS011;9652;49.014;12.052;2022-09-09T15:08:56;0.77;;;0.30;;
19038;SDS011;9652;49.014;12.052;2022-09-09T15:11:24;1.70;;;0.70;;
19038;SDS011;9652;49.014;12.052;2022-09-09T15:13:56;1.90;;;0.67;;
19038;SDS011;9652;49.014;12.052;2022-09-09T15:16:24;3.63;;;0.63;;
19038;SDS011;9652;49.014;12.052;2022-09-09T15:18:55;1.00;;;0.70;;
19038;SDS011;9652;49.014;12.052;2022-09-09T15:21:24;2.87;;;1.10;;
19038;SDS011;9652;49.014;12.052;2022-09-09T15:23:54;1.37;;;0.90;;
19038;SDS011;9652;49.014;12.052;2022-09-09T15:26:22;2.87;;;1.27;;
19038;SDS011;9652;49.014;12.052;2022-09-09T15:28:51;1.90;;;0.87;;
19038;SDS011;9652;49.014;12.052;2022-09-09T15:31:19;2.23;;;0.63;;